createdAt,value
2018-01-04T00:02:43.010Z,1.80
2018-01-04T00:07:45.729Z,4.83
2018-01-04T00:12:48.954Z,2.03
2018-01-04T00:17:51.792Z,2.20
2018-01-04T00:22:55.247Z,2.17
2018-01-04T00:27:57.925Z,6.30
2018-01-04T00:33:01.392Z,3.37
2018-01-04T00:38:04.079Z,2.80
2018-01-04T00:43:07.649Z,5.80
2018-01-04T00:48:10.420Z,3.93
2018-01-04T00:53:13.957Z,3.00
2018-01-04T00:58:16.924Z,2.63
2018-01-04T01:03:20.031Z,3.50
2018-01-04T01:08:22.834Z,5.83
2018-01-04T01:13:26.450Z,4.20
2018-01-04T01:18:29.213Z,3.53
2018-01-04T01:23:32.741Z,4.23
2018-01-04T01:28:35.378Z,2.27
2018-01-04T01:33:38.373Z,3.23
2018-01-04T01:38:41.258Z,6.23
2018-01-04T01:43:45.406Z,3.50
2018-01-04T01:48:48.131Z,4.27
2018-01-04T01:53:50.805Z,3.63
2018-01-04T01:58:54.331Z,5.03
2018-01-04T02:03:57.428Z,3.33
2018-01-04T02:09:00.844Z,2.97
2018-01-04T02:14:04.502Z,2.20
2018-01-04T02:24:56.937Z,2.10
2018-01-04T02:30:12.097Z,3.47
2018-01-04T02:35:29.598Z,4.10
2018-01-04T02:40:45.185Z,4.37
2018-01-04T02:45:59.727Z,4.57
2018-01-04T02:51:03.309Z,6.93
2018-01-04T02:56:06.726Z,3.00
2018-01-04T03:01:10.817Z,3.77
2018-01-04T03:06:13.576Z,2.50
2018-01-04T03:11:16.682Z,3.93
2018-01-04T03:16:20.129Z,2.07
2018-01-04T03:21:22.929Z,5.83
2018-01-04T03:26:31.366Z,2.57
2018-01-04T03:31:53.714Z,3.57
2018-01-04T03:37:02.033Z,1.90
2018-01-04T03:42:11.393Z,3.93
2018-01-04T03:47:19.634Z,2.20
2018-01-04T03:52:28.673Z,4.27
2018-01-04T03:57:37.024Z,5.83
2018-01-04T04:02:45.919Z,4.47
2018-01-04T04:07:48.555Z,2.50
2018-01-04T04:12:51.474Z,3.13
2018-01-04T04:17:54.107Z,4.67
2018-01-04T04:22:57.693Z,3.67
2018-01-04T04:28:00.343Z,3.93
2018-01-04T04:33:03.006Z,2.43
2018-01-04T04:38:05.652Z,3.07
2018-01-04T04:43:09.310Z,3.50
2018-01-04T04:48:11.981Z,7.13
2018-01-04T04:53:15.868Z,3.87
2018-01-04T04:58:18.621Z,1.80
2018-01-04T05:03:21.936Z,2.60
2018-01-04T05:08:24.604Z,1.93
2018-01-04T05:13:28.094Z,5.47
2018-01-04T05:18:30.768Z,4.47
2018-01-04T05:23:34.478Z,4.97
2018-01-04T05:28:37.141Z,5.10
2018-01-04T05:33:40.241Z,4.30
2018-01-04T05:38:42.918Z,3.67
2018-01-04T05:43:46.099Z,6.67
2018-01-04T05:48:48.783Z,8.47
2018-01-04T05:53:52.442Z,8.47
2018-01-04T05:58:55.083Z,8.60
2018-01-04T06:03:58.289Z,8.03
2018-01-04T06:09:00.961Z,10.83
2018-01-04T06:14:04.742Z,6.23
2018-01-04T06:19:08.944Z,4.33
2018-01-04T06:24:12.433Z,11.10
2018-01-04T06:29:15.086Z,11.93
2018-01-04T06:34:17.796Z,7.40
2018-01-04T06:39:21.210Z,8.93
2018-01-04T06:44:24.751Z,10.33
2018-01-04T06:49:27.391Z,5.57
2018-01-04T06:54:30.530Z,9.97
2018-01-04T06:59:33.167Z,9.37
2018-01-04T07:04:36.263Z,6.87
2018-01-04T07:09:39.688Z,8.27
2018-01-04T07:14:42.816Z,14.37
2018-01-04T07:19:45.445Z,9.27
2018-01-04T07:24:48.955Z,9.93
2018-01-04T07:29:52.898Z,9.07
2018-01-04T07:34:56.575Z,8.30
2018-01-04T07:39:59.194Z,6.83
2018-01-04T07:45:02.786Z,11.60
2018-01-04T07:50:05.450Z,12.63
2018-01-04T07:55:08.826Z,11.13
2018-01-04T08:00:11.499Z,10.53
2018-01-04T08:05:14.465Z,7.83
2018-01-04T08:10:18.619Z,5.83
2018-01-04T08:15:21.763Z,10.93
2018-01-04T08:20:24.434Z,10.90
2018-01-04T08:25:27.886Z,7.70
2018-01-04T08:35:56.078Z,8.23
2018-01-04T08:40:58.725Z,9.40
2018-01-04T08:46:02.021Z,12.90
2018-01-04T08:51:04.819Z,8.47
2018-01-04T08:56:07.709Z,10.67
2018-01-04T09:01:10.370Z,10.00
2018-01-04T09:06:13.676Z,8.53
2018-01-04T09:11:16.443Z,12.97
2018-01-04T09:16:19.887Z,13.10
2018-01-04T09:21:22.518Z,19.37
2018-01-04T09:26:25.748Z,13.17
2018-01-04T09:31:28.445Z,9.07
2018-01-04T09:36:31.450Z,11.53
2018-01-04T09:41:34.137Z,8.17
2018-01-04T09:46:37.173Z,9.20
2018-01-04T09:51:40.611Z,8.80
2018-01-04T09:56:49.112Z,6.77
2018-01-04T10:01:51.745Z,7.73
2018-01-04T10:06:54.956Z,12.73
2018-01-04T10:11:57.687Z,14.30
2018-01-04T10:17:00.918Z,14.03
2018-01-04T10:22:04.399Z,9.10
2018-01-04T10:27:07.800Z,11.80
2018-01-04T10:32:10.497Z,6.40
2018-01-04T10:37:14.862Z,12.43
2018-01-04T10:42:17.548Z,12.53
2018-01-04T10:47:20.758Z,5.27
2018-01-04T10:52:24.516Z,9.90
2018-01-04T10:57:28.010Z,12.23
2018-01-04T11:02:30.682Z,11.60
2018-01-04T11:07:34.532Z,9.20
2018-01-04T11:12:37.224Z,14.73
2018-01-04T11:17:40.000Z,5.40
2018-01-04T11:22:43.547Z,8.97
2018-01-04T11:27:46.606Z,12.30
2018-01-04T11:32:50.035Z,11.10
2018-01-04T11:37:53.722Z,11.53
2018-01-04T11:42:56.377Z,9.57
2018-01-04T11:48:00.164Z,11.50
2018-01-04T11:53:02.836Z,10.37
2018-01-04T11:58:05.846Z,8.53
2018-01-04T12:03:09.044Z,9.17
2018-01-04T12:08:12.336Z,7.77
2018-01-04T12:13:15.757Z,7.97
2018-01-04T12:18:19.453Z,9.50
2018-01-04T12:23:22.116Z,10.27
2018-01-04T12:28:25.532Z,9.23
2018-01-04T12:33:28.234Z,12.27
2018-01-04T12:38:31.350Z,12.10
2018-01-04T12:43:34.435Z,9.73
2018-01-04T12:48:37.332Z,8.40
2018-01-04T12:53:39.997Z,11.27
2018-01-04T12:58:43.286Z,11.47
2018-01-04T13:03:45.906Z,9.93
2018-01-04T13:08:48.691Z,15.83
2018-01-04T13:13:51.346Z,11.47
2018-01-04T13:18:54.957Z,16.70
2018-01-04T13:23:58.365Z,12.50
2018-01-04T13:29:02.347Z,16.03
2018-01-04T13:34:05.005Z,13.97
2018-01-04T13:39:08.687Z,14.00
2018-01-04T13:44:11.440Z,20.60
2018-01-04T13:49:14.778Z,8.37
2018-01-04T13:54:17.396Z,16.00
2018-01-04T13:59:20.869Z,14.87
2018-01-04T14:04:24.285Z,11.00
2018-01-04T14:09:28.029Z,13.67
2018-01-04T14:14:30.664Z,13.17
2018-01-04T14:19:34.174Z,7.53
2018-01-04T14:24:36.839Z,14.40
2018-01-04T14:29:40.375Z,12.27
2018-01-04T14:34:43.052Z,9.10
2018-01-04T14:39:47.492Z,14.50
2018-01-04T14:44:50.163Z,12.90
2018-01-04T14:49:52.891Z,13.70
2018-01-04T14:55:04.283Z,11.93
2018-01-04T15:00:11.028Z,14.50
2018-01-04T15:05:15.097Z,8.90
2018-01-04T15:10:19.281Z,15.13
2018-01-04T15:15:24.092Z,12.03
2018-01-04T15:20:28.414Z,11.63
2018-01-04T15:25:32.112Z,16.77
2018-01-04T15:30:35.801Z,6.77
2018-01-04T15:35:41.631Z,12.03
2018-01-04T15:40:47.319Z,15.73
2018-01-04T15:45:50.858Z,11.93
2018-01-04T15:50:53.965Z,15.53
2018-01-04T15:55:56.583Z,18.43
2018-01-04T16:00:59.982Z,11.47
2018-01-04T16:06:03.440Z,9.27
2018-01-04T16:11:07.058Z,16.63
2018-01-04T16:16:09.698Z,14.47
2018-01-04T16:21:13.460Z,10.93
2018-01-04T16:26:16.095Z,14.70
2018-01-04T16:31:19.325Z,14.50
2018-01-04T16:36:21.996Z,14.13
2018-01-04T16:41:25.072Z,11.27
2018-01-04T16:46:27.816Z,14.93
2018-01-04T16:51:33.334Z,12.57
2018-01-04T16:56:36.786Z,12.90
2018-01-04T17:01:39.935Z,9.73
2018-01-04T17:06:42.595Z,11.10
2018-01-04T17:11:45.597Z,10.47
2018-01-04T17:16:48.256Z,10.80
2018-01-04T17:21:52.597Z,12.47
2018-01-04T17:26:56.029Z,15.30
2018-01-04T17:32:00.318Z,11.67
2018-01-04T17:37:03.783Z,15.73
2018-01-04T17:42:06.862Z,14.57
2018-01-04T17:47:09.705Z,14.40
2018-01-04T17:52:13.523Z,13.80
2018-01-04T17:57:16.243Z,14.37
2018-01-04T18:02:29.403Z,10.67
2018-01-04T18:07:36.678Z,14.67
2018-01-04T18:12:46.530Z,15.30
2018-01-04T18:17:55.227Z,12.87
2018-01-04T18:22:59.176Z,10.17
2018-01-04T18:28:02.946Z,14.03
2018-01-04T18:33:07.722Z,15.30
2018-01-04T18:38:10.512Z,11.77
2018-01-04T18:43:13.922Z,16.00
2018-01-04T18:48:16.825Z,32.70
2018-01-04T18:53:20.278Z,12.60
2018-01-04T18:58:23.396Z,10.97
2018-01-04T19:03:26.387Z,13.20
2018-01-04T19:08:29.022Z,15.03
2018-01-04T19:13:32.344Z,15.47
2018-01-04T19:18:35.989Z,13.23
2018-01-04T19:23:39.816Z,17.33
2018-01-04T19:28:42.823Z,11.20
2018-01-04T19:33:45.946Z,10.93
2018-01-04T19:38:48.777Z,15.53
2018-01-04T19:43:51.850Z,11.50
2018-01-04T19:48:54.751Z,14.13
2018-01-04T19:53:58.167Z,11.40
2018-01-04T19:59:00.874Z,12.67
2018-01-04T20:04:04.386Z,9.80
2018-01-04T20:09:07.188Z,16.13
2018-01-04T20:14:10.709Z,12.50
2018-01-04T20:19:14.886Z,11.00
2018-01-04T20:24:17.871Z,8.20
2018-01-04T20:29:20.606Z,10.47
2018-01-04T20:34:23.455Z,12.40
2018-01-04T20:39:26.258Z,12.27
2018-01-04T20:44:29.170Z,7.10
2018-01-04T20:49:31.973Z,7.67
2018-01-04T20:54:35.421Z,8.53
2018-01-04T20:59:38.254Z,8.37
2018-01-04T21:04:41.909Z,7.73
2018-01-04T21:09:44.818Z,8.63
2018-01-04T21:14:48.509Z,6.50
2018-01-04T21:19:51.245Z,3.37
2018-01-04T21:24:54.310Z,7.80
2018-01-04T21:29:57.109Z,8.60
2018-01-04T21:34:59.956Z,7.00
2018-01-04T21:40:02.625Z,6.70
2018-01-04T21:45:05.670Z,8.73
2018-01-04T21:50:08.462Z,6.37
2018-01-04T21:55:12.005Z,8.27
2018-01-04T22:00:15.133Z,4.60
2018-01-04T22:05:18.712Z,3.30
2018-01-04T22:10:21.378Z,3.10
2018-01-04T22:15:25.274Z,4.57
2018-01-04T22:20:27.965Z,2.63
2018-01-04T22:25:31.282Z,2.77
2018-01-04T22:30:34.166Z,2.73
2018-01-04T22:35:37.798Z,2.87
2018-01-04T22:40:40.485Z,4.40
2018-01-04T22:45:43.651Z,2.00
2018-01-04T22:50:46.419Z,2.10
2018-01-04T22:55:50.134Z,3.30
2018-01-04T23:00:53.138Z,2.77
2018-01-04T23:05:56.483Z,2.97
2018-01-04T23:10:59.152Z,2.83
2018-01-04T23:16:03.197Z,3.73
2018-01-04T23:21:06.113Z,3.50
2018-01-04T23:26:09.426Z,2.33
2018-01-04T23:31:12.308Z,2.70
2018-01-04T23:36:15.771Z,4.50
2018-01-04T23:41:18.541Z,2.17
2018-01-04T23:46:22.240Z,5.07
2018-01-04T23:51:26.021Z,1.90
2018-01-04T23:56:32.254Z,2.57
